createdAt,value
2019-06-20T00:04:52.983Z,18.00
2019-06-20T00:09:55.450Z,17.90
2019-06-20T00:14:58.075Z,17.90
2019-06-20T00:20:00.568Z,17.90
2019-06-20T00:25:03.169Z,17.80
2019-06-20T00:30:07.705Z,17.80
2019-06-20T00:35:13.087Z,17.90
2019-06-20T00:40:15.876Z,17.90
2019-06-20T00:45:18.720Z,17.90
2019-06-20T00:50:21.224Z,17.90
2019-06-20T00:55:23.877Z,17.90
2019-06-20T01:00:26.413Z,17.90
2019-06-20T01:05:29.061Z,18.00
2019-06-20T01:10:31.562Z,18.10
2019-06-20T01:15:34.095Z,18.30
2019-06-20T01:20:36.578Z,18.30
2019-06-20T01:25:42.467Z,18.40
2019-06-20T01:30:45.101Z,19.10
2019-06-20T01:35:48.447Z,19.90
2019-06-20T01:40:52.990Z,20.30
2019-06-20T01:45:56.851Z,20.60
2019-06-20T01:51:00.721Z,20.70
2019-06-20T01:56:03.200Z,20.90
2019-06-20T02:01:06.635Z,20.90
2019-06-20T02:06:09.116Z,20.80
2019-06-20T02:11:11.764Z,20.70
2019-06-20T02:16:14.393Z,20.60
2019-06-20T02:21:17.014Z,20.60
2019-06-20T02:26:19.524Z,20.50
2019-06-20T02:31:22.005Z,20.40
2019-06-20T02:36:24.484Z,20.40
2019-06-20T02:41:27.020Z,20.40
2019-06-20T02:46:29.633Z,20.40
2019-06-20T02:51:32.480Z,20.40
2019-06-20T02:56:35.008Z,20.40
2019-06-20T03:01:37.502Z,20.40
2019-06-20T03:06:40.019Z,20.40
2019-06-20T03:11:42.540Z,20.40
2019-06-20T03:16:45.088Z,20.50
2019-06-20T03:21:47.519Z,20.50
2019-06-20T03:26:49.981Z,20.40
2019-06-20T03:31:52.425Z,20.40
2019-06-20T03:36:55.245Z,20.30
2019-06-20T03:41:57.689Z,20.40
2019-06-20T03:47:00.212Z,20.30
2019-06-20T03:52:02.777Z,20.20
2019-06-20T03:57:05.382Z,20.10
2019-06-20T04:02:08.151Z,20.10
2019-06-20T04:07:10.565Z,20.20
2019-06-20T04:12:13.126Z,20.20
2019-06-20T04:17:15.645Z,20.30
2019-06-20T04:22:18.133Z,20.30
2019-06-20T04:27:21.649Z,20.20
2019-06-20T04:32:24.072Z,20.00
2019-06-20T04:37:26.629Z,20.00
2019-06-20T04:42:29.092Z,20.20
2019-06-20T04:47:31.583Z,20.30
2019-06-20T04:52:34.093Z,20.40
2019-06-20T04:57:36.734Z,20.60
2019-06-20T05:02:39.444Z,20.80
2019-06-20T05:07:42.601Z,20.80
2019-06-20T05:12:45.053Z,20.80
2019-06-20T05:17:47.775Z,20.90
2019-06-20T05:22:50.362Z,21.40
2019-06-20T05:27:52.804Z,21.80
2019-06-20T05:32:55.269Z,21.80
2019-06-20T05:37:57.748Z,21.60
2019-06-20T05:43:00.199Z,21.60
2019-06-20T05:48:02.932Z,21.70
2019-06-20T05:53:05.841Z,21.80
2019-06-20T05:58:08.367Z,21.80
2019-06-20T06:03:13.650Z,21.80
2019-06-20T06:08:16.356Z,21.90
2019-06-20T06:13:19.540Z,22.00
2019-06-20T06:18:23.065Z,22.30
2019-06-20T06:23:26.012Z,22.70
2019-06-20T06:28:28.528Z,23.10
2019-06-20T06:33:31.167Z,23.50
2019-06-20T06:38:34.061Z,23.40
2019-06-20T06:43:41.744Z,23.30
2019-06-20T06:49:01.107Z,23.30
2019-06-20T06:54:06.679Z,23.30
2019-06-20T06:59:10.689Z,23.60
2019-06-20T07:04:13.524Z,23.70
2019-06-20T07:09:17.269Z,23.90
2019-06-20T07:14:20.316Z,24.30
2019-06-20T07:19:23.030Z,24.60
2019-06-20T07:24:25.903Z,24.50
2019-06-20T07:29:28.437Z,25.00
2019-06-20T07:34:31.506Z,25.50
2019-06-20T07:39:33.960Z,25.30
2019-06-20T07:44:36.660Z,25.30
2019-06-20T07:49:39.675Z,25.40
2019-06-20T07:54:45.199Z,25.60
2019-06-20T07:59:47.619Z,25.80
2019-06-20T08:04:50.010Z,25.80
2019-06-20T08:09:52.482Z,26.10
2019-06-20T08:14:55.061Z,26.40
2019-06-20T08:19:58.216Z,26.40
2019-06-20T08:25:01.618Z,26.70
2019-06-20T08:30:07.305Z,27.20
2019-06-20T08:35:10.935Z,27.80
2019-06-20T08:40:13.478Z,27.80
2019-06-20T08:45:16.725Z,27.70
2019-06-20T08:50:19.344Z,27.60
2019-06-20T08:55:22.662Z,27.30
2019-06-20T09:00:27.749Z,27.10
2019-06-20T09:05:31.608Z,26.90
2019-06-20T09:10:41.251Z,27.00
2019-06-20T09:15:45.763Z,27.10
2019-06-20T09:20:48.252Z,27.50
2019-06-20T09:25:51.141Z,27.50
2019-06-20T09:30:55.438Z,27.60
2019-06-20T09:35:57.866Z,27.80
2019-06-20T09:41:00.398Z,27.80
2019-06-20T09:46:02.818Z,27.80
2019-06-20T09:51:05.256Z,27.70
2019-06-20T09:56:07.743Z,27.70
2019-06-20T10:01:10.287Z,27.70
2019-06-20T10:06:22.157Z,27.60
2019-06-20T10:11:24.630Z,27.80
2019-06-20T10:16:26.965Z,27.90
2019-06-20T10:21:29.470Z,27.60
2019-06-20T10:26:31.920Z,27.50
2019-06-20T10:31:34.370Z,27.30
2019-06-20T10:36:39.128Z,27.00
2019-06-20T10:41:41.480Z,27.00
2019-06-20T10:46:44.578Z,27.30
2019-06-20T10:51:48.090Z,27.60
2019-06-20T10:56:51.068Z,27.60
2019-06-20T11:01:54.058Z,27.90
2019-06-20T11:07:23.391Z,28.10
2019-06-20T11:12:25.983Z,28.10
2019-06-20T11:22:48.211Z,28.20
2019-06-20T11:27:51.690Z,28.20
2019-06-20T11:32:54.430Z,28.50
2019-06-20T11:37:57.385Z,29.30
2019-06-20T11:43:00.486Z,29.90
2019-06-20T11:48:03.553Z,30.10
2019-06-20T11:53:05.991Z,30.10
2019-06-20T11:58:08.437Z,30.50
2019-06-20T12:03:10.941Z,30.80
2019-06-20T12:08:13.400Z,30.50
2019-06-20T12:13:15.815Z,29.90
2019-06-20T12:18:18.462Z,29.70
2019-06-20T12:23:20.903Z,30.00
2019-06-20T12:28:23.409Z,29.90
2019-06-20T12:33:26.321Z,29.50
2019-06-20T12:38:28.934Z,29.20
2019-06-20T12:43:31.343Z,29.40
2019-06-20T12:48:34.045Z,30.00
2019-06-20T12:53:37.753Z,30.30
2019-06-20T12:58:42.252Z,30.50
2019-06-20T13:03:46.404Z,30.50
2019-06-20T13:08:49.563Z,30.60
2019-06-20T13:13:52.003Z,31.10
2019-06-20T13:18:54.959Z,31.70
2019-06-20T13:23:57.522Z,32.50
2019-06-20T13:29:04.088Z,33.10
2019-06-20T13:34:04.343Z,32.10
2019-06-20T13:39:07.158Z,31.30
2019-06-20T13:44:10.593Z,31.00
2019-06-20T13:49:17.733Z,30.90
2019-06-20T13:54:21.264Z,30.30
2019-06-20T13:59:24.446Z,29.70
2019-06-20T14:04:27.448Z,29.20
2019-06-20T14:09:30.042Z,28.90
2019-06-20T14:14:33.711Z,28.40
2019-06-20T14:19:38.185Z,28.00
2019-06-20T14:24:43.430Z,27.60
2019-06-20T14:29:46.598Z,26.80
2019-06-20T14:34:50.301Z,26.90
2019-06-20T14:39:53.277Z,29.70
2019-06-20T14:44:55.779Z,32.10
2019-06-20T14:49:58.248Z,33.40
2019-06-20T14:55:00.675Z,33.00
2019-06-20T15:00:03.347Z,32.10
2019-06-20T15:05:13.487Z,31.80
2019-06-20T15:10:17.982Z,31.30
2019-06-20T15:15:22.231Z,30.70
2019-06-20T15:20:26.753Z,30.30
2019-06-20T15:25:29.174Z,29.80
2019-06-20T15:30:31.772Z,29.20
2019-06-20T15:35:34.209Z,28.00
2019-06-20T15:40:36.777Z,27.20
2019-06-20T15:45:39.227Z,26.60
2019-06-20T15:50:41.627Z,26.10
2019-06-20T15:55:44.001Z,25.10
2019-06-20T16:00:46.522Z,23.90
2019-06-20T16:05:49.198Z,22.90
2019-06-20T16:10:51.688Z,22.00
2019-06-20T16:15:54.205Z,21.60
2019-06-20T16:20:56.628Z,21.30
2019-06-20T16:25:59.118Z,21.00
2019-06-20T16:31:10.112Z,20.70
2019-06-20T16:36:05.978Z,20.50
2019-06-20T16:41:08.724Z,20.50
2019-06-20T16:46:11.218Z,20.50
2019-06-20T16:51:14.173Z,20.40
2019-06-20T16:56:16.681Z,20.50
2019-06-20T17:01:19.142Z,20.60
2019-06-20T17:06:21.666Z,20.80
2019-06-20T17:11:24.200Z,20.70
2019-06-20T17:16:28.125Z,20.80
2019-06-20T17:21:30.598Z,20.90
2019-06-20T17:26:33.113Z,21.00
2019-06-20T17:31:35.819Z,21.10
2019-06-20T17:36:38.555Z,21.00
2019-06-20T17:41:54.415Z,20.70
2019-06-20T17:46:45.349Z,20.50
2019-06-20T17:51:47.878Z,20.60
2019-06-20T17:56:50.323Z,20.70
2019-06-20T18:01:52.690Z,20.70
2019-06-20T18:06:56.160Z,20.80
2019-06-20T18:11:58.736Z,20.90
2019-06-20T18:17:02.185Z,20.80
2019-06-20T18:22:04.687Z,20.50
2019-06-20T18:27:07.179Z,20.30
2019-06-20T18:32:09.675Z,20.30
2019-06-20T18:37:12.166Z,20.20
2019-06-20T18:42:16.874Z,20.10
2019-06-20T18:47:21.918Z,20.10
2019-06-20T18:52:24.128Z,20.00
2019-06-20T18:57:26.927Z,20.10
2019-06-20T19:02:29.484Z,20.00
2019-06-20T19:07:32.064Z,19.70
2019-06-20T19:12:34.579Z,19.60
2019-06-20T19:17:37.220Z,19.50
2019-06-20T19:22:39.650Z,19.30
2019-06-20T19:27:46.541Z,19.10
2019-06-20T19:32:46.676Z,18.90
2019-06-20T19:37:50.660Z,18.70
2019-06-20T19:42:53.147Z,18.50
2019-06-20T19:47:55.591Z,18.40
2019-06-20T19:52:58.187Z,18.40
2019-06-20T19:58:01.264Z,18.30
2019-06-20T20:03:05.898Z,18.20
2019-06-20T20:08:08.455Z,18.00
2019-06-20T20:13:11.109Z,17.80
2019-06-20T20:18:14.260Z,17.70
2019-06-20T20:23:16.738Z,17.60
2019-06-20T20:28:19.493Z,17.50
2019-06-20T20:33:21.941Z,17.30
2019-06-20T20:38:24.493Z,17.10
2019-06-20T20:43:27.182Z,17.00
2019-06-20T20:48:29.591Z,16.90
2019-06-20T20:53:32.222Z,16.70
2019-06-20T20:58:34.749Z,16.60
2019-06-20T21:03:37.271Z,16.50
2019-06-20T21:08:39.962Z,16.40
2019-06-20T21:13:43.318Z,16.30
2019-06-20T21:18:45.744Z,16.30
2019-06-20T21:23:48.855Z,16.20
2019-06-20T21:28:51.299Z,16.10
2019-06-20T21:33:54.584Z,16.00
2019-06-20T21:38:57.189Z,16.00
2019-06-20T21:43:59.734Z,15.90
2019-06-20T21:49:02.168Z,15.90
2019-06-20T21:54:05.047Z,15.90
2019-06-20T21:59:07.609Z,15.80
2019-06-20T22:04:10.456Z,15.80
2019-06-20T22:09:13.140Z,15.70
2019-06-20T22:14:15.763Z,15.70
2019-06-20T22:19:18.159Z,15.70
2019-06-20T22:24:20.556Z,15.70
2019-06-20T22:29:22.956Z,15.70
2019-06-20T22:34:25.395Z,15.70
2019-06-20T22:39:27.791Z,15.80
2019-06-20T22:44:30.143Z,15.80
2019-06-20T22:49:33.733Z,15.90
2019-06-20T22:54:36.131Z,15.90
2019-06-20T22:59:38.452Z,15.90
2019-06-20T23:04:40.863Z,15.90
2019-06-20T23:09:43.235Z,16.00
2019-06-20T23:14:45.743Z,16.10
2019-06-20T23:19:48.172Z,16.20
2019-06-20T23:24:50.577Z,16.30
2019-06-20T23:29:53.135Z,16.50
2019-06-20T23:34:55.569Z,16.60
2019-06-20T23:39:57.983Z,16.60
2019-06-20T23:45:00.508Z,16.70
2019-06-20T23:50:03.249Z,16.70
2019-06-20T23:55:06.427Z,16.70
